Time;durP1;ratioP1;P1;durP2;ratioP2;P2;SDS_P1;SDS_P2;PMS_P1;PMS_P2;Temp;Humidity;BMP_temperature;BMP_pressure;BME280_temperature;BME280_humidity;BME280_pressure;Samples;Min_cycle;Max_cycle;Signal;HPM_P1;HPM_P2
2021/04/12 00:00:28;;;;;;;14.30;9.33;;;;;;;6.64;68.33;98021.66;1776756;80;21053;-74
2021/04/12 00:03:06;;;;;;;12.47;8.83;;;;;;;6.62;68.84;98017.61;1783664;80;21096;-74
2021/04/12 00:05:50;;;;;;;9.25;7.83;;;;;;;6.59;69.80;98013.55;1783560;80;22110;-74
2021/04/12 00:08:33;;;;;;;13.13;10.00;;;;;;;6.50;69.43;98015.08;1783625;80;21490;-73
2021/04/12 00:11:37;;;;;;;11.70;9.80;;;;;;;6.40;71.00;98015.75;1783538;80;21100;-74
2021/04/12 00:14:17;;;;;;;14.80;8.35;;;;;;;6.33;70.18;98013.82;1783573;80;21051;-74
2021/04/12 00:17:06;;;;;;;17.50;9.03;;;;;;;6.42;70.42;98012.84;1783522;80;21028;-73
2021/04/12 00:19:55;;;;;;;15.00;8.65;;;;;;;6.45;70.63;98009.63;1783755;80;22031;-75
2021/04/12 00:22:45;;;;;;;12.10;6.97;;;;;;;6.43;71.39;98008.54;1783576;80;21091;-74
2021/04/12 00:25:22;;;;;;;9.25;5.83;;;;;;;6.42;73.72;98004.76;1783341;80;21194;-74
2021/04/12 00:27:53;;;;;;;11.00;6.45;;;;;;;6.34;72.72;98007.36;1760664;80;21116;-75
2021/04/12 00:30:33;;;;;;;17.77;9.55;;;;;;;6.37;72.18;98011.42;1785220;80;21603;-72
2021/04/12 00:33:08;;;;;;;15.30;9.35;;;;;;;6.42;71.46;98008.80;1783541;80;21297;-74
2021/04/12 00:36:03;;;;;;;13.88;9.23;;;;;;;6.39;72.14;98006.06;1783361;80;22718;-73
2021/04/12 00:39:06;;;;;;;14.45;9.40;;;;;;;6.36;71.38;97997.16;1783523;80;21107;-74
2021/04/12 00:42:17;;;;;;;14.00;10.30;;;;;;;6.32;71.27;98008.12;1783496;80;21437;-74
2021/04/12 00:45:10;;;;;;;18.73;11.70;;;;;;;6.25;73.91;98000.81;1783535;80;21064;-74
2021/04/12 00:47:42;;;;;;;16.82;12.05;;;;;;;6.18;71.02;97998.84;1783522;80;22092;-74
2021/04/12 00:50:29;;;;;;;16.17;10.05;;;;;;;6.15;71.18;97996.63;1783348;80;21139;-74
2021/04/12 00:53:27;;;;;;;23.87;17.48;;;;;;;6.10;70.41;97992.02;1783417;80;21075;-73
2021/04/12 00:55:57;;;;;;;20.85;15.03;;;;;;;5.89;70.58;97993.60;1782408;80;21035;-73
2021/04/12 00:58:50;;;;;;;23.60;15.32;;;;;;;5.83;74.04;97988.44;1780821;80;21062;-75
2021/04/12 01:01:51;;;;;;;21.68;12.70;;;;;;;5.83;71.94;97989.24;1780777;79;22104;-74
2021/04/12 01:04:40;;;;;;;13.75;8.35;;;;;;;5.88;71.58;97991.98;1780648;80;21562;-72
2021/04/12 01:07:58;;;;;;;11.93;7.75;;;;;;;5.92;71.76;97993.69;1762044;81;21076;-73
2021/04/12 01:10:48;;;;;;;10.35;7.37;;;;;;;5.90;71.65;97989.06;1780687;79;21300;-74
2021/04/12 01:13:37;;;;;;;17.80;11.12;;;;;;;5.86;71.60;97991.42;1762266;81;21501;-73
2021/04/12 01:16:28;;;;;;;14.73;10.38;;;;;;;5.82;71.72;97997.03;1780803;79;22114;-74
2021/04/12 01:19:42;;;;;;;13.28;8.55;;;;;;;5.73;73.05;97987.77;1762228;81;21105;-73
2021/04/12 01:22:47;;;;;;;14.43;8.50;;;;;;;5.61;72.41;97985.71;1780691;79;21110;-74
2021/04/12 01:25:58;;;;;;;15.72;9.50;;;;;;;5.52;73.84;97989.89;1762115;81;21100;-74
2021/04/12 01:29:07;;;;;;;17.67;10.98;;;;;;;5.34;76.30;97977.02;1780747;80;21090;-73
2021/04/12 01:32:12;;;;;;;18.98;11.50;;;;;;;5.33;73.56;97981.30;1762277;81;21963;-74
2021/04/12 01:35:26;;;;;;;20.88;11.73;;;;;;;5.19;75.82;97970.59;1780636;80;21152;-74
2021/04/12 01:38:02;;;;;;;17.85;10.65;;;;;;;5.18;75.92;97979.19;1761920;81;21506;-74
2021/04/12 01:40:54;;;;;;;30.68;14.68;;;;;;;5.18;74.80;97978.38;1780772;79;21031;-74
2021/04/12 01:43:54;;;;;;;16.97;12.90;;;;;;;5.22;73.85;97970.12;1762236;81;21096;-74
2021/04/12 01:47:04;;;;;;;23.45;10.43;;;;;;;5.24;75.89;97967.47;1826552;76;22442;-73
2021/04/12 01:49:54;;;;;;;17.25;9.58;;;;;;;5.25;74.78;97961.56;1785973;80;21142;-75
2021/04/12 01:52:59;;;;;;;27.13;14.80;;;;;;;5.26;75.87;97971.25;1785720;79;22119;-74
2021/04/12 01:55:48;;;;;;;20.82;13.62;;;;;;;5.34;74.66;97969.48;1784864;79;20975;-74
2021/04/12 01:58:32;;;;;;;20.57;12.30;;;;;;;5.33;76.19;97965.98;1784448;80;21511;-75
2021/04/12 02:01:29;;;;;;;15.78;10.23;;;;;;;5.30;74.29;97959.77;1785437;79;20998;-74
2021/04/12 02:04:37;;;;;;;17.65;11.00;;;;;;;5.32;75.04;97971.08;1785969;79;21472;-74
2021/04/12 02:07:15;;;;;;;18.65;11.05;;;;;;;5.36;74.14;97965.48;1786006;79;21208;-73
2021/04/12 02:09:58;;;;;;;20.95;12.65;;;;;;;5.32;75.65;97964.36;1785476;80;21141;-74
2021/04/12 02:12:45;;;;;;;29.25;11.08;;;;;;;5.32;76.64;97960.86;1785903;80;21070;-75
2021/04/12 02:15:25;;;;;;;19.05;12.18;;;;;;;5.36;76.00;97961.45;1785836;79;21126;-73
2021/04/12 02:18:33;;;;;;;18.55;10.93;;;;;;;5.42;74.66;97968.25;1785905;80;21051;-74
2021/04/12 02:21:25;;;;;;;18.92;11.03;;;;;;;5.48;75.90;97965.39;1786026;79;21271;-74
2021/04/12 02:24:05;;;;;;;18.82;12.98;;;;;;;5.41;77.09;97955.88;1772287;80;21094;-73
2021/04/12 02:27:07;;;;;;;21.00;14.53;;;;;;;5.45;74.96;97961.84;1785787;79;21154;-73
2021/04/12 02:30:05;;;;;;;21.45;13.30;;;;;;;5.43;74.53;97963.16;1785905;80;21027;-73
2021/04/12 02:33:08;;;;;;;24.50;15.28;;;;;;;5.47;74.43;97961.08;1785895;80;21098;-73
2021/04/12 02:36:11;;;;;;;25.05;14.87;;;;;;;5.38;74.15;97959.35;1785577;79;21278;-74
2021/04/12 02:38:45;;;;;;;24.75;16.87;;;;;;;5.40;74.16;97965.81;1771576;80;21047;-73
2021/04/12 02:41:20;;;;;;;31.02;17.50;;;;;;;5.40;74.31;97968.50;1785899;79;21149;-73
2021/04/12 02:44:19;;;;;;;25.55;19.35;;;;;;;5.31;76.42;97954.68;1785176;80;21523;-74
2021/04/12 02:47:12;;;;;;;28.75;14.40;;;;;;;5.30;74.41;97962.99;1762324;80;21024;-74
2021/04/12 02:50:38;;;;;;;26.75;14.10;;;;;;;5.22;74.08;97961.53;1785154;80;21199;-74
2021/04/12 02:53:36;;;;;;;24.60;14.53;;;;;;;5.19;74.94;97952.60;1785396;80;21519;-74
2021/04/12 02:56:24;;;;;;;24.75;16.40;;;;;;;5.12;75.87;97949.80;1785843;79;21090;-74
2021/04/12 02:58:59;;;;;;;28.95;18.40;;;;;;;5.12;75.61;97951.95;1784569;80;21126;-74
2021/04/12 03:01:55;;;;;;;28.95;19.27;;;;;;;5.12;75.69;97950.61;1785355;79;21012;-74
2021/04/12 03:04:59;;;;;;;28.38;17.60;;;;;;;5.14;75.92;97958.45;1785265;79;21201;-74
2021/04/12 03:08:04;;;;;;;31.07;20.65;;;;;;;5.13;75.45;97956.30;1784980;80;21099;-74
2021/04/12 03:11:27;;;;;;;22.55;15.88;;;;;;;5.00;75.25;97951.25;1785250;79;21146;-74
2021/04/12 03:14:24;;;;;;;34.33;21.20;;;;;;;4.94;76.01;97960.27;1785277;80;21166;-74
2021/04/12 03:17:19;;;;;;;40.83;25.62;;;;;;;4.86;75.04;97956.66;1755542;80;21134;-73
2021/04/12 03:20:09;;;;;;;42.90;26.45;;;;;;;4.77;76.17;97957.59;1785328;80;21237;-73
2021/04/12 03:23:09;;;;;;;57.70;34.95;;;;;;;4.68;74.99;97945.63;1785284;80;21491;-74
2021/04/12 03:25:52;;;;;;;49.50;32.75;;;;;;;4.66;77.05;97951.78;1784116;79;21122;-74
2021/04/12 03:28:29;;;;;;;47.15;30.15;;;;;;;4.60;77.17;97948.71;1785365;80;21083;-74
2021/04/12 03:31:24;;;;;;;33.35;17.00;;;;;;;4.56;77.27;97953.77;1785327;79;21036;-74
2021/04/12 03:34:10;;;;;;;43.60;21.60;;;;;;;4.62;76.67;97950.13;1785254;79;21251;-74
2021/04/12 03:37:13;;;;;;;27.25;16.77;;;;;;;4.58;76.49;97946.28;1754863;80;21043;-74
2021/04/12 03:40:12;;;;;;;29.20;15.23;;;;;;;4.51;79.19;97938.91;1785285;80;21554;-74
2021/04/12 03:42:58;;;;;;;22.50;15.35;;;;;;;4.50;77.10;97947.48;1785366;80;22046;-74
2021/04/12 03:46:04;;;;;;;38.90;19.67;;;;;;;4.46;76.61;97945.02;1778582;79;21035;-74
2021/04/12 03:48:51;;;;;;;27.40;18.57;;;;;;;4.41;78.07;97943.57;1784134;80;21397;-73
2021/04/12 03:52:04;;;;;;;50.40;30.20;;;;;;;4.34;79.82;97936.73;1784476;79;21051;-74
2021/04/12 03:55:09;;;;;;;57.75;28.57;;;;;;;4.31;78.32;97954.66;1785224;80;21154;-73
2021/04/12 03:58:22;;;;;;;41.92;25.27;;;;;;;4.30;78.50;97941.77;1784629;80;21540;-74
2021/04/12 04:01:06;;;;;;;39.70;23.95;;;;;;;4.22;76.68;97950.20;1784628;79;21058;-74
2021/04/12 04:04:00;;;;;;;24.90;16.30;;;;;;;4.31;76.96;97953.31;1847619;76;22629;-73
2021/04/12 04:06:52;;;;;;;28.57;18.27;;;;;;;4.14;80.21;97943.36;1775417;79;20964;-75
2021/04/12 04:09:36;;;;;;;20.95;16.50;;;;;;;4.14;78.42;97948.72;1785944;79;22068;-74
2021/04/12 04:12:13;;;;;;;35.52;20.95;;;;;;;4.20;78.41;97946.95;1785792;79;21027;-74
2021/04/12 04:15:09;;;;;;;27.37;20.23;;;;;;;4.21;78.34;97945.38;1757519;80;21464;-74
2021/04/12 04:17:52;;;;;;;34.25;22.13;;;;;;;4.30;77.68;97952.50;1785226;80;21100;-73
2021/04/12 04:20:51;;;;;;;29.12;18.07;;;;;;;4.36;77.79;97944.00;1785899;79;21231;-74
2021/04/12 04:23:26;;;;;;;30.35;18.67;;;;;;;4.32;77.85;97942.34;1786046;80;26193;-74
2021/04/12 04:26:06;;;;;;;32.95;16.32;;;;;;;4.30;77.66;97967.78;1785858;79;21393;-74
2021/04/12 04:28:44;;;;;;;26.10;15.18;;;;;;;4.24;80.86;97952.11;1785701;79;21408;-74
2021/04/12 04:31:32;;;;;;;31.00;19.17;;;;;;;4.29;78.18;97956.77;1785716;79;21011;-74
2021/04/12 04:34:19;;;;;;;27.67;21.68;;;;;;;4.31;77.99;97957.34;1786142;80;21078;-74
2021/04/12 04:37:24;;;;;;;25.52;16.93;;;;;;;4.31;79.60;97950.63;1785813;79;21188;-74
2021/04/12 04:40:35;;;;;;;20.90;14.07;;;;;;;4.32;80.13;97954.94;1785936;80;21083;-73
2021/04/12 04:43:29;;;;;;;29.82;17.55;;;;;;;4.36;79.35;97970.33;1765623;80;21617;-74
2021/04/12 04:46:19;;;;;;;27.58;13.48;;;;;;;4.41;78.95;97969.59;1764960;79;21122;-74
2021/04/12 04:49:11;;;;;;;18.15;11.95;;;;;;;4.44;78.92;97971.28;1785847;79;21115;-73
2021/04/12 04:51:55;;;;;;;20.30;14.15;;;;;;;4.48;80.37;97964.89;1785800;79;21245;-73
2021/04/12 04:54:48;;;;;;;17.48;11.20;;;;;;;4.63;79.39;97971.06;1785925;79;21082;-75
2021/04/12 04:57:37;;;;;;;18.40;11.97;;;;;;;4.68;80.77;97967.91;1785594;79;21110;-74
2021/04/12 05:00:25;;;;;;;24.43;14.60;;;;;;;4.80;79.98;97974.04;1786016;79;21534;-74
2021/04/12 05:03:17;;;;;;;26.20;14.38;;;;;;;4.91;80.33;97968.30;1793933;79;21034;-74
2021/04/12 05:06:38;;;;;;;29.57;16.27;;;;;;;5.07;78.15;97976.88;1800353;78;21196;-74
2021/04/12 05:09:25;;;;;;;27.10;17.65;;;;;;;5.24;77.94;97978.21;1800310;79;21077;-75
2021/04/12 05:12:25;;;;;;;25.32;17.00;;;;;;;5.46;77.49;97970.18;1800368;78;21221;-74
2021/04/12 05:15:24;;;;;;;38.90;23.42;;;;;;;5.57;76.93;97969.81;1799862;79;21062;-74
2021/04/12 05:18:31;;;;;;;44.00;25.48;;;;;;;5.60;76.83;97970.65;1796518;79;21038;-73
2021/04/12 05:21:36;;;;;;;40.83;23.90;;;;;;;5.65;76.83;97974.23;1799928;78;22009;-74
2021/04/12 05:24:32;;;;;;;35.73;21.23;;;;;;;5.83;76.78;97979.83;1799871;79;21086;-75
2021/04/12 05:27:03;;;;;;;35.03;19.98;;;;;;;6.04;76.66;97968.80;1780787;79;21200;-73
2021/04/12 05:30:09;;;;;;;36.40;19.55;;;;;;;6.27;76.62;97968.26;1780224;80;21091;-74
2021/04/12 05:33:12;;;;;;;25.97;15.00;;;;;;;6.44;75.89;97971.66;1778607;80;21444;-75
2021/04/12 05:36:23;;;;;;;26.68;16.17;;;;;;;6.56;76.35;97964.23;1780737;79;22050;-73
2021/04/12 05:39:25;;;;;;;25.40;13.40;;;;;;;6.77;75.61;97973.33;1762147;81;21450;-74
2021/04/12 05:42:15;;;;;;;21.52;14.35;;;;;;;6.95;75.64;97983.72;1780751;79;21036;-72
2021/04/12 05:45:02;;;;;;;25.05;11.12;;;;;;;7.15;75.12;97984.40;1762264;81;21084;-74
2021/04/12 05:47:51;;;;;;;21.30;13.00;;;;;;;7.33;74.89;97984.52;1780936;80;21405;-74
2021/04/12 05:50:23;;;;;;;25.77;15.00;;;;;;;7.51;74.46;97979.24;1781030;79;21357;-73
2021/04/12 05:53:03;;;;;;;28.83;17.20;;;;;;;7.78;74.61;97979.15;1780685;80;21070;-74
2021/04/12 05:56:10;;;;;;;36.28;21.62;;;;;;;7.99;74.48;97968.70;1780898;79;21409;-75
2021/04/12 05:58:50;;;;;;;24.90;15.38;;;;;;;8.38;74.74;97967.80;1780804;80;21106;-73
2021/04/12 06:01:49;;;;;;;23.45;12.23;;;;;;;8.91;74.17;97972.45;1780907;79;21471;-74
2021/04/12 06:04:48;;;;;;;25.25;12.95;;;;;;;9.28;73.65;97970.00;1720776;83;21232;-74
2021/04/12 06:07:43;;;;;;;23.50;12.78;;;;;;;9.54;71.98;97963.45;1720863;83;21065;-75
2021/04/12 06:10:31;;;;;;;31.73;15.60;;;;;;;9.64;70.15;97961.81;1889189;76;22458;-74
2021/04/12 06:13:28;;;;;;;32.00;16.80;;;;;;;9.61;70.13;97963.98;1854533;77;21456;-73
2021/04/12 06:16:15;;;;;;;26.27;16.40;;;;;;;9.69;69.29;97969.38;1853012;77;22009;-74
2021/04/12 06:19:16;;;;;;;29.90;19.82;;;;;;;9.88;68.63;97958.22;1854081;77;20948;-73
2021/04/12 06:22:14;;;;;;;29.37;16.80;;;;;;;10.13;67.67;97957.84;1854231;77;20976;-75
2021/04/12 06:25:18;;;;;;;45.25;17.45;;;;;;;10.38;68.46;97961.00;1854210;77;20980;-75
2021/04/12 06:28:22;;;;;;;26.90;14.50;;;;;;;10.71;66.74;97960.80;1825064;77;21088;-74
2021/04/12 06:31:36;;;;;;;21.20;12.65;;;;;;;11.24;66.69;97960.91;1854134;77;22002;-74
2021/04/12 06:34:13;;;;;;;22.50;11.40;;;;;;;11.82;65.38;97962.26;1854166;77;21075;-73
2021/04/12 06:36:50;;;;;;;19.15;9.95;;;;;;;12.33;65.13;97961.08;1854234;77;21480;-74
2021/04/12 06:39:34;;;;;;;17.85;10.20;;;;;;;12.50;60.77;97959.22;1854232;77;22226;-74
2021/04/12 06:42:53;;;;;;;16.02;10.08;;;;;;;12.77;63.53;97962.62;1854253;77;21515;-74
2021/04/12 06:46:01;;;;;;;12.98;7.55;;;;;;;13.04;63.24;97960.58;1854178;77;22211;-74
2021/04/12 06:49:18;;;;;;;29.87;12.40;;;;;;;13.32;61.13;97960.13;1854221;77;21031;-75
2021/04/12 06:52:22;;;;;;;33.15;14.40;;;;;;;13.50;60.11;97971.53;1854094;77;21020;-74
2021/04/12 06:55:21;;;;;;;29.92;13.50;;;;;;;13.80;59.06;97973.42;1854180;77;21421;-75
2021/04/12 06:58:45;;;;;;;15.93;8.50;;;;;;;14.39;58.85;97972.50;1854196;77;21135;-74
2021/04/12 07:01:34;;;;;;;11.80;5.60;;;;;;;14.64;51.85;97969.80;1853280;77;21464;-74
2021/04/12 07:04:35;;;;;;;;;;;;;;;15.56;55.11;97967.58;1856757;77;21540;-73
2021/04/12 07:07:25;;;;;;;10.18;5.95;;;;;;;15.65;47.46;97969.83;1854179;77;20226;-75
2021/04/12 07:10:17;;;;;;;12.07;6.72;;;;;;;16.52;48.63;97975.58;1853974;77;21456;-74
2021/04/12 07:13:18;;;;;;;12.95;5.55;;;;;;;17.54;49.45;97969.05;1854223;77;21080;-74
2021/04/12 07:16:19;;;;;;;9.78;4.80;;;;;;;17.90;46.68;97961.78;1816939;79;22098;-75
2021/04/12 07:19:30;;;;;;;16.05;4.90;;;;;;;18.79;46.53;97957.66;1783891;80;21066;-74
2021/04/12 07:22:17;;;;;;;9.40;4.58;;;;;;;19.84;43.22;97959.10;1782483;80;21043;-75
2021/04/12 07:25:34;;;;;;;12.45;5.97;;;;;;;20.50;42.51;97959.46;1783785;80;21131;-74
2021/04/12 07:28:35;;;;;;;8.28;4.87;;;;;;;20.52;43.07;97957.98;1784526;80;21086;-74
2021/04/12 07:31:39;;;;;;;8.73;4.95;;;;;;;21.67;36.71;97955.17;1784224;80;22097;-74
2021/04/12 07:34:42;;;;;;;11.33;3.25;;;;;;;21.37;38.15;97950.06;1784073;80;21047;-74
2021/04/12 07:37:26;;;;;;;13.15;4.47;;;;;;;20.55;38.75;97959.23;1784160;80;21067;-74
2021/04/12 07:40:39;;;;;;;4.67;2.22;;;;;;;19.83;39.55;97960.83;1784199;80;21095;-75
2021/04/12 07:43:36;;;;;;;5.22;2.05;;;;;;;19.10;38.67;97953.13;1784283;80;21083;-75
2021/04/12 07:46:30;;;;;;;6.37;2.23;;;;;;;18.32;39.27;97957.22;1781490;80;21286;-74
2021/04/12 07:49:42;;;;;;;4.50;2.22;;;;;;;17.75;40.67;97963.12;1784123;80;21039;-73
2021/04/12 07:52:59;;;;;;;10.08;6.78;;;;;;;17.48;40.67;97963.50;1784114;80;21056;-74
2021/04/12 07:55:53;;;;;;;4.67;3.10;;;;;;;17.26;41.71;97957.68;1784108;80;21055;-74
2021/04/12 07:59:13;;;;;;;7.83;2.40;;;;;;;17.22;41.97;97951.80;1784173;80;21115;-75
2021/04/12 08:02:22;;;;;;;3.95;2.87;;;;;;;17.43;42.01;97960.92;1784199;80;21201;-75
2021/04/12 08:05:17;;;;;;;5.90;2.95;;;;;;;17.52;41.62;97960.36;1784166;80;21092;-74
2021/04/12 08:08:06;;;;;;;5.92;2.80;;;;;;;17.32;41.59;97968.68;1784165;80;21091;-74
2021/04/12 08:11:19;;;;;;;5.25;2.58;;;;;;;17.11;41.36;97965.02;1767268;80;21111;-75
2021/04/12 08:14:31;;;;;;;4.60;1.87;;;;;;;16.87;41.92;97973.71;1759390;80;21012;-74
2021/04/12 08:17:05;;;;;;;5.45;2.37;;;;;;;16.66;42.44;97981.70;1784242;80;21198;-73
2021/04/12 08:19:56;;;;;;;5.90;3.15;;;;;;;16.49;42.32;97985.77;1782834;80;21504;-74
2021/04/12 08:22:57;;;;;;;6.05;3.15;;;;;;;16.45;42.57;97983.45;1784102;80;21103;-74
2021/04/12 08:26:06;;;;;;;7.15;3.85;;;;;;;16.31;42.92;97982.20;1784084;80;21051;-75
2021/04/12 08:29:02;;;;;;;6.70;3.30;;;;;;;16.29;43.11;97978.98;1784121;80;21107;-73
2021/04/12 08:31:56;;;;;;;5.58;3.27;;;;;;;16.32;43.16;97979.17;1784089;80;22078;-75
2021/04/12 08:34:40;;;;;;;18.98;4.55;;;;;;;16.30;43.06;97990.96;1784110;80;21456;-74
2021/04/12 08:38:02;;;;;;;8.38;2.95;;;;;;;16.27;43.22;97999.81;1784010;80;21432;-74
2021/04/12 08:41:17;;;;;;;3.62;2.37;;;;;;;16.15;43.72;97984.59;1784020;80;21059;-74
2021/04/12 08:44:04;;;;;;;15.10;2.80;;;;;;;16.25;42.27;97988.95;1784096;80;21483;-74
2021/04/12 08:46:42;;;;;;;8.35;4.97;;;;;;;16.03;42.96;97998.03;1784090;80;21467;-74
2021/04/12 08:50:00;;;;;;;9.25;5.40;;;;;;;15.92;43.60;97996.70;1783613;80;21043;-74
2021/04/12 08:52:53;;;;;;;;;;;;;;;15.91;44.02;97991.00;1786743;80;21491;-74
2021/04/12 08:55:25;;;;;;;8.38;4.42;;;;;;;15.84;44.41;97979.71;1784161;80;20234;-74
2021/04/12 08:58:26;;;;;;;12.18;10.70;;;;;;;15.82;43.81;97980.03;1784135;80;21125;-74
2021/04/12 09:01:00;;;;;;;10.68;3.90;;;;;;;15.81;43.99;97972.95;1815042;79;21208;-74
2021/04/12 09:04:08;;;;;;;8.23;2.55;;;;;;;15.84;44.22;97975.61;1782844;80;21555;-74
2021/04/12 09:07:17;;;;;;;27.07;5.65;;;;;;;15.83;43.79;97983.00;1784055;80;21100;-74
2021/04/12 09:10:25;;;;;;;20.77;4.78;;;;;;;15.75;43.72;97977.74;1767930;80;21116;-75
2021/04/12 09:13:16;;;;;;;8.60;2.55;;;;;;;15.73;44.17;97981.92;1786888;80;21138;-73
2021/04/12 09:16:17;;;;;;;9.53;3.05;;;;;;;15.71;43.89;97985.50;1787135;80;21195;-74
2021/04/12 09:19:18;;;;;;;4.80;2.05;;;;;;;15.72;43.90;97980.28;1783726;80;21106;-73
2021/04/12 09:22:12;;;;;;;7.92;3.40;;;;;;;15.79;43.84;97978.71;1787083;80;21094;-74
2021/04/12 09:25:04;;;;;;;7.60;2.90;;;;;;;15.96;43.82;97981.28;1787086;80;21067;-74
2021/04/12 09:27:58;;;;;;;4.35;2.55;;;;;;;16.22;43.49;97982.73;1786527;80;21174;-75
2021/04/12 09:30:55;;;;;;;4.80;4.00;;;;;;;16.36;43.51;97977.95;1785618;80;21213;-75
2021/04/12 09:34:01;;;;;;;10.00;6.30;;;;;;;16.48;43.49;97980.86;1787139;80;21098;-74
2021/04/12 09:37:02;;;;;;;9.35;5.15;;;;;;;16.42;43.63;97986.83;1787195;80;21047;-74
2021/04/12 09:40:21;;;;;;;13.70;5.05;;;;;;;16.33;43.89;97986.81;1787163;80;21043;-73
2021/04/12 09:43:10;;;;;;;20.72;7.17;;;;;;;16.23;43.96;97992.54;1787204;80;21095;-74
2021/04/12 09:46:02;;;;;;;5.87;3.87;;;;;;;16.12;44.28;97996.13;1787144;80;21199;-75
2021/04/12 09:49:16;;;;;;;7.53;4.15;;;;;;;15.99;44.77;98000.59;1787112;80;21067;-75
2021/04/12 09:52:10;;;;;;;9.10;4.95;;;;;;;15.93;45.32;98001.05;1786145;80;21106;-74
2021/04/12 09:55:21;;;;;;;8.65;4.55;;;;;;;15.60;46.89;97990.40;1767191;80;21046;-74
2021/04/12 09:58:40;;;;;;;8.80;4.62;;;;;;;15.36;47.86;97998.12;1785757;80;21079;-74
2021/04/12 10:01:24;;;;;;;12.82;5.62;;;;;;;15.16;48.07;98008.98;1787173;80;21191;-74
2021/04/12 10:04:18;;;;;;;8.38;5.17;;;;;;;15.07;48.46;98008.92;1786106;80;21173;-76
2021/04/12 10:07:08;;;;;;;10.78;5.90;;;;;;;14.98;48.40;98003.95;1745801;81;21043;-75
2021/04/12 10:10:05;;;;;;;11.43;6.22;;;;;;;14.91;48.95;98004.92;1776314;80;21134;-74
2021/04/12 10:12:48;;;;;;;10.98;5.58;;;;;;;14.69;50.10;98011.13;1712635;81;21114;-75
2021/04/12 10:15:48;;;;;;;8.88;4.85;;;;;;;14.74;49.27;98012.95;1771832;81;21127;-74
2021/04/12 10:18:31;;;;;;;9.78;5.50;;;;;;;14.54;50.37;98006.03;1761119;81;21478;-75
2021/04/12 10:21:17;;;;;;;10.70;5.75;;;;;;;14.38;50.63;98009.61;1772815;80;21072;-74
2021/04/12 10:23:47;;;;;;;12.03;5.60;;;;;;;14.44;50.58;98014.38;1761081;81;21121;-75
2021/04/12 10:26:16;;;;;;;10.85;6.00;;;;;;;14.59;50.51;98013.53;1772002;81;21080;-75
2021/04/12 10:28:56;;;;;;;15.20;6.47;;;;;;;14.90;49.75;98015.03;1761032;81;21246;-75
2021/04/12 10:31:40;;;;;;;13.13;6.75;;;;;;;14.90;50.17;98016.40;1756721;81;21135;-74
2021/04/12 10:34:17;;;;;;;12.10;6.65;;;;;;;14.82;50.15;98021.22;1761158;81;21082;-74
2021/04/12 10:37:11;;;;;;;15.70;8.58;;;;;;;14.63;50.54;98024.09;1772724;80;21104;-75
2021/04/12 10:39:49;;;;;;;14.35;6.58;;;;;;;14.54;50.86;98021.84;1761055;81;21030;-75
2021/04/12 10:42:36;;;;;;;13.78;6.85;;;;;;;14.56;50.89;98026.98;1772805;80;22048;-75
2021/04/12 10:45:25;;;;;;;12.53;6.58;;;;;;;14.42;51.24;98024.22;1753320;80;21431;-75
2021/04/12 10:48:15;;;;;;;11.80;7.65;;;;;;;14.51;50.97;98033.33;1772867;80;21103;-74
2021/04/12 10:51:25;;;;;;;11.93;6.62;;;;;;;14.30;51.34;98037.57;1758472;80;21506;-74
2021/04/12 10:54:40;;;;;;;10.25;6.30;;;;;;;14.25;51.36;98036.30;1759573;81;21487;-74
2021/04/12 10:57:30;;;;;;;11.95;6.22;;;;;;;14.28;51.18;98035.71;1772973;81;21105;-75
2021/04/12 11:00:29;;;;;;;14.23;6.37;;;;;;;14.23;51.30;98036.61;1761018;81;21065;-74
2021/04/12 11:03:13;;;;;;;;;;;;;;;14.27;51.26;98032.70;1775350;81;21084;-74
2021/04/12 11:05:41;;;;;;;13.85;6.35;;;;;;;14.21;51.33;98033.38;1772930;80;20266;-74
2021/04/12 11:08:38;;;;;;;12.13;7.25;;;;;;;14.15;51.19;98046.84;1761199;81;21073;-75
2021/04/12 11:11:19;;;;;;;18.82;13.48;;;;;;;14.06;51.21;98050.83;1772735;80;21193;-73
2021/04/12 11:14:11;;;;;;;35.25;24.55;;;;;;;14.11;51.32;98048.57;1761230;81;21070;-74
2021/04/12 11:16:45;;;;;;;56.23;45.17;;;;;;;14.05;52.00;98042.41;1772827;81;21430;-75
2021/04/12 11:19:42;;;;;;;22.93;12.55;;;;;;;14.00;52.18;98047.94;1761335;81;21487;-75
2021/04/12 11:22:22;;;;;;;15.60;7.90;;;;;;;13.99;51.98;98040.88;1772889;81;21036;-76
2021/04/12 11:25:03;;;;;;;23.65;8.53;;;;;;;14.00;52.17;98045.20;1760605;81;21177;-75
2021/04/12 11:28:01;;;;;;;13.20;8.38;;;;;;;14.04;52.27;98053.61;1771386;81;21041;-75
2021/04/12 11:31:03;;;;;;;17.10;8.40;;;;;;;14.06;52.72;98052.74;1761375;80;21054;-74
2021/04/12 11:33:53;;;;;;;14.90;7.03;;;;;;;14.06;52.41;98051.38;1772341;81;21103;-75
2021/04/12 11:36:30;;;;;;;15.15;6.53;;;;;;;14.02;52.53;98052.55;1751806;80;21510;-74
2021/04/12 11:39:13;;;;;;;27.60;8.75;;;;;;;14.00;52.22;98058.83;1772868;80;21196;-75
2021/04/12 11:42:01;;;;;;;10.70;6.45;;;;;;;14.04;52.12;98054.97;1761073;80;21149;-74
2021/04/12 11:44:52;;;;;;;12.65;6.30;;;;;;;14.15;51.92;98054.22;1773047;81;26489;-74
2021/04/12 11:47:50;;;;;;;12.68;5.90;;;;;;;14.18;51.62;98054.41;1708909;81;21078;-74
2021/04/12 11:50:33;;;;;;;11.23;6.13;;;;;;;14.33;51.62;98056.84;1765703;81;21120;-75
2021/04/12 11:53:29;;;;;;;16.35;8.73;;;;;;;14.35;51.03;98055.97;1733533;81;21199;-75
2021/04/12 11:56:06;;;;;;;19.62;9.13;;;;;;;14.34;51.54;98056.28;1772743;81;21032;-75
2021/04/12 11:58:50;;;;;;;15.00;8.10;;;;;;;14.44;52.01;98053.38;1735722;81;21117;-75
2021/04/12 12:01:39;;;;;;;13.35;6.85;;;;;;;14.43;51.24;98050.37;1759594;81;21022;-75
2021/04/12 12:04:36;;;;;;;18.00;8.60;;;;;;;14.58;51.29;98056.91;1772196;81;21087;-74
2021/04/12 12:07:20;;;;;;;10.60;6.42;;;;;;;14.70;51.25;98054.21;1761070;80;21307;-74
2021/04/12 12:09:53;;;;;;;13.43;6.90;;;;;;;14.90;50.03;98061.41;1772616;80;21492;-75
2021/04/12 12:12:36;;;;;;;9.80;6.50;;;;;;;15.16;50.06;98060.28;1760904;80;21149;-74
2021/04/12 12:15:33;;;;;;;15.40;7.37;;;;;;;15.14;49.57;98061.16;1772768;81;21183;-74
2021/04/12 12:18:23;;;;;;;11.70;6.03;;;;;;;15.41;49.44;98059.44;1761158;81;21145;-74
2021/04/12 12:21:11;;;;;;;16.35;6.97;;;;;;;15.35;48.85;98057.94;1772671;81;21495;-74
2021/04/12 12:24:13;;;;;;;10.88;6.78;;;;;;;15.42;48.91;98051.48;1761211;81;21487;-75
2021/04/12 12:26:51;;;;;;;14.47;6.33;;;;;;;15.47;48.02;98056.28;1772850;80;21403;-75
2021/04/12 12:29:31;;;;;;;18.77;8.18;;;;;;;15.69;48.63;98055.47;1761219;81;21486;-75
2021/04/12 12:32:17;;;;;;;10.60;6.05;;;;;;;15.78;48.04;98055.52;1759529;81;21023;-74
2021/04/12 12:35:18;;;;;;;16.25;6.97;;;;;;;15.86;48.17;98046.57;1772623;80;21488;-75
2021/04/12 12:38:02;;;;;;;17.87;7.37;;;;;;;15.86;47.55;98052.59;1761179;81;21058;-75
2021/04/12 12:40:52;;;;;;;11.60;7.50;;;;;;;15.89;48.35;98053.33;1772832;80;21437;-75
2021/04/12 12:43:24;;;;;;;13.83;7.25;;;;;;;15.70;47.52;98051.63;1761225;81;21098;-74
2021/04/12 12:45:50;;;;;;;15.23;8.83;;;;;;;15.68;47.58;98051.13;1772841;81;21122;-75
2021/04/12 12:48:24;;;;;;;18.35;8.35;;;;;;;15.90;48.03;98046.20;1761135;81;21964;-75
2021/04/12 12:51:00;;;;;;;12.80;7.92;;;;;;;16.10;47.52;98053.61;1772619;81;21127;-74
2021/04/12 12:53:34;;;;;;;14.47;9.03;;;;;;;16.04;47.10;98046.91;1734173;81;21074;-75
2021/04/12 12:56:08;;;;;;;13.90;8.05;;;;;;;16.04;47.36;98048.83;1772717;81;21124;-75
2021/04/12 12:58:34;;;;;;;11.38;6.97;;;;;;;16.03;46.60;98048.03;1760186;81;21148;-74
2021/04/12 13:01:02;;;;;;;16.90;7.75;;;;;;;16.16;47.01;98049.06;1772706;80;21255;-74
2021/04/12 13:03:43;;;;;;;13.50;7.70;;;;;;;16.10;46.72;98049.52;1761117;81;21137;-75
2021/04/12 13:06:26;;;;;;;14.30;9.35;;;;;;;15.96;47.25;98050.95;1772801;81;21055;-75
2021/04/12 13:08:58;;;;;;;45.90;27.07;;;;;;;15.96;46.24;98051.77;1761128;81;21118;-74
2021/04/12 13:11:49;;;;;;;12.15;6.95;;;;;;;16.13;46.90;98059.80;1772646;80;21489;-74
2021/04/12 13:14:44;;;;;;;17.40;13.38;;;;;;;15.91;46.48;98051.92;1761223;81;21244;-74
2021/04/12 13:17:32;;;;;;;11.48;8.08;;;;;;;16.03;46.25;98057.59;1772760;80;21127;-75
2021/04/12 13:20:12;;;;;;;14.05;10.48;;;;;;;15.98;46.62;98056.38;1734190;81;21073;-74
2021/04/12 13:22:45;;;;;;;13.40;7.30;;;;;;;16.14;46.60;98052.65;1772821;81;21100;-74
2021/04/12 13:25:32;;;;;;;12.80;8.60;;;;;;;16.28;45.78;98053.92;1761152;80;21125;-74